Time;durP1;ratioP1;P1;durP2;ratioP2;P2;SDS_P1;SDS_P2;PMS_P1;PMS_P2;Temp;Humidity;BMP_temperature;BMP_pressure;BME280_temperature;BME280_humidity;BME280_pressure;Samples;Min_cycle;Max_cycle;Signal;HPM_P1;HPM_P2
2024/02/05 00:00:35;;;;;;;10.70;7.00;;;10.60;99.90;;;;;;5034469;28;20526;-79
2024/02/05 00:03:05;;;;;;;10.60;6.80;;;10.60;99.90;;;;;;5034313;28;20549;-79
2024/02/05 00:05:33;;;;;;;15.80;7.90;;;10.60;99.90;;;;;;5033812;28;20475;-77
2024/02/05 00:08:03;;;;;;;11.67;6.40;;;10.60;99.90;;;;;;5034016;28;20583;-78
2024/02/05 00:10:31;;;;;;;13.13;6.60;;;10.60;99.90;;;;;;5033347;28;20549;-78
2024/02/05 00:13:00;;;;;;;13.40;8.07;;;10.60;99.90;;;;;;5035006;28;20447;-79
2024/02/05 00:15:29;;;;;;;13.20;7.67;;;10.70;99.90;;;;;;5033130;28;20476;-77
2024/02/05 00:17:58;;;;;;;12.83;7.00;;;10.70;99.90;;;;;;5032768;28;20451;-77
2024/02/05 00:20:26;;;;;;;13.83;6.70;;;10.70;99.90;;;;;;5034698;28;20446;-78
2024/02/05 00:22:54;;;;;;;12.83;7.20;;;10.60;99.90;;;;;;5034140;28;20450;-77
2024/02/05 00:25:23;;;;;;;13.90;7.73;;;10.70;99.90;;;;;;5035187;28;20487;-77
2024/02/05 00:27:52;;;;;;;14.30;7.10;;;10.60;99.90;;;;;;5033315;28;20451;-77
2024/02/05 00:30:21;;;;;;;8.70;6.70;;;10.70;99.90;;;;;;5033503;28;20449;-77
2024/02/05 00:32:52;;;;;;;15.00;8.33;;;10.70;99.90;;;;;;5033640;28;20481;-78
2024/02/05 00:35:20;;;;;;;13.73;7.00;;;10.60;99.90;;;;;;5033839;28;20470;-78
2024/02/05 00:37:49;;;;;;;14.90;7.00;;;10.60;99.90;;;;;;5032800;28;20451;-77
2024/02/05 00:40:17;;;;;;;14.63;8.10;;;10.60;99.90;;;;;;5033119;28;20447;-78
2024/02/05 00:42:46;;;;;;;21.30;8.23;;;10.60;99.90;;;;;;5034353;28;20435;-77
2024/02/05 00:45:14;;;;;;;16.20;8.27;;;10.60;99.90;;;;;;5035193;28;20516;-78
2024/02/05 00:47:42;;;;;;;15.00;8.00;;;10.60;99.90;;;;;;5038605;28;21042;-79
2024/02/05 00:50:12;;;;;;;17.93;8.50;;;10.60;99.90;;;;;;5037715;28;20504;-77
2024/02/05 00:52:41;;;;;;;16.20;8.83;;;10.60;99.90;;;;;;5038975;28;20905;-77
2024/02/05 00:55:09;;;;;;;16.53;7.67;;;10.60;99.90;;;;;;5037518;28;20471;-78
2024/02/05 00:57:37;;;;;;;13.70;7.30;;;10.60;99.90;;;;;;5038434;28;20515;-77
2024/02/05 01:00:09;;;;;;;14.50;7.90;;;10.60;99.90;;;;;;5037478;28;20447;-77
2024/02/05 01:02:37;;;;;;;21.37;8.10;;;10.60;99.90;;;;;;5038261;28;20451;-78
2024/02/05 01:05:06;;;;;;;12.47;7.63;;;10.60;99.90;;;;;;5040876;28;20549;-77
2024/02/05 01:07:36;;;;;;;12.17;7.77;;;10.60;99.90;;;;;;5039487;28;20438;-78
2024/02/05 01:10:06;;;;;;;12.73;7.33;;;10.60;99.90;;;;;;5038742;28;20442;-79
2024/02/05 01:12:34;;;;;;;12.13;7.50;;;10.60;99.90;;;;;;5037562;28;20569;-79
2024/02/05 01:15:03;;;;;;;14.80;8.20;;;10.50;99.90;;;;;;5036259;28;20475;-78
2024/02/05 01:17:32;;;;;;;16.53;7.73;;;10.60;99.90;;;;;;5037010;28;20485;-78
2024/02/05 01:20:01;;;;;;;14.50;7.60;;;10.50;99.90;;;;;;5036820;28;20453;-78
2024/02/05 01:22:33;;;;;;;17.20;7.70;;;10.50;99.90;;;;;;5038030;28;20478;-77
2024/02/05 01:25:02;;;;;;;13.07;8.33;;;10.50;99.90;;;;;;5038158;28;20467;-77
2024/02/05 01:27:30;;;;;;;17.03;8.07;;;10.50;99.90;;;;;;5038189;28;20451;-79
2024/02/05 01:29:59;;;;;;;16.40;8.47;;;10.50;99.90;;;;;;5039986;28;20470;-79
2024/02/05 01:32:27;;;;;;;17.97;7.90;;;10.50;99.90;;;;;;5039747;28;20470;-78
2024/02/05 01:34:55;;;;;;;20.00;8.60;;;10.50;99.90;;;;;;5039790;28;20455;-78
2024/02/05 01:37:24;;;;;;;16.20;7.33;;;10.50;99.90;;;;;;5038832;28;20446;-78
2024/02/05 01:39:52;;;;;;;26.37;9.00;;;10.50;99.90;;;;;;5037756;28;20438;-78
2024/02/05 01:42:23;;;;;;;17.53;8.63;;;10.50;99.90;;;;;;5039139;28;20880;-78
2024/02/05 01:44:53;;;;;;;15.60;8.90;;;10.50;99.90;;;;;;5038507;28;20846;-78
2024/02/05 01:47:22;;;;;;;16.13;8.43;;;10.50;99.90;;;;;;5038582;28;20446;-78
2024/02/05 01:49:51;;;;;;;19.13;10.13;;;10.50;99.90;;;;;;5039437;28;20797;-78
2024/02/05 01:52:21;;;;;;;15.83;9.00;;;10.50;99.90;;;;;;5039598;28;20553;-79
2024/02/05 01:54:50;;;;;;;17.00;9.17;;;10.50;99.90;;;;;;5037776;28;20505;-77
2024/02/05 01:57:18;;;;;;;15.83;8.73;;;10.50;99.90;;;;;;5037227;28;20822;-79
2024/02/05 01:59:49;;;;;;;21.57;8.73;;;10.50;99.90;;;;;;5037325;28;20483;-79
2024/02/05 02:02:17;;;;;;;21.17;8.90;;;10.40;99.90;;;;;;5037244;28;20764;-79
2024/02/05 02:04:46;;;;;;;16.63;8.20;;;10.40;99.90;;;;;;5036595;28;21016;-78
2024/02/05 02:07:16;;;;;;;19.63;9.30;;;10.50;99.90;;;;;;5036636;28;20450;-76
2024/02/05 02:09:45;;;;;;;19.23;8.73;;;10.40;99.90;;;;;;5036334;28;20941;-78
2024/02/05 02:12:13;;;;;;;18.17;8.53;;;10.40;99.90;;;;;;5037276;28;20470;-77
2024/02/05 02:14:41;;;;;;;17.40;9.47;;;10.40;99.90;;;;;;5035831;28;20520;-78
2024/02/05 02:17:11;;;;;;;18.00;8.47;;;10.40;99.90;;;;;;5036289;28;20493;-76
2024/02/05 02:19:45;;;;;;;18.77;9.10;;;10.40;99.90;;;;;;5035246;28;21028;-77
2024/02/05 02:22:21;;;;;;;16.53;8.43;;;10.40;99.90;;;;;;5036693;28;20430;-78
2024/02/05 02:24:50;;;;;;;19.80;8.47;;;10.40;99.90;;;;;;5035468;28;20506;-77
2024/02/05 02:27:18;;;;;;;16.67;8.37;;;10.40;99.90;;;;;;5035256;28;20490;-77
2024/02/05 02:29:46;;;;;;;25.10;10.03;;;10.40;99.90;;;;;;5035938;28;20485;-78
2024/02/05 02:32:23;;;;;;;18.20;8.87;;;10.40;99.90;;;;;;5034961;28;20466;-78
2024/02/05 02:34:59;;;;;;;22.43;9.90;;;10.40;99.90;;;;;;5036273;28;20549;-78
2024/02/05 02:37:31;;;;;;;16.00;8.40;;;10.40;99.90;;;;;;5035080;28;20446;-77
2024/02/05 02:40:05;;;;;;;22.40;9.93;;;10.40;99.90;;;;;;5037080;28;20431;-78
2024/02/05 02:42:35;;;;;;;19.50;9.23;;;10.40;99.90;;;;;;5036681;28;20422;-78
2024/02/05 02:45:04;;;;;;;22.30;10.77;;;10.40;99.90;;;;;;5035124;28;20474;-79
2024/02/05 02:47:32;;;;;;;19.47;9.83;;;10.30;99.90;;;;;;5035157;28;20509;-77
2024/02/05 02:50:01;;;;;;;20.10;10.27;;;10.30;99.90;;;;;;5036374;28;20441;-78
2024/02/05 02:52:29;;;;;;;14.27;9.70;;;10.40;99.90;;;;;;5036027;28;20477;-78
2024/02/05 02:54:57;;;;;;;17.23;9.80;;;10.30;99.90;;;;;;5035065;28;20502;-77
2024/02/05 02:57:27;;;;;;;18.83;9.97;;;10.30;99.90;;;;;;5035661;28;20850;-78
2024/02/05 02:59:55;;;;;;;20.40;11.10;;;10.30;99.90;;;;;;5035008;28;20479;-78
2024/02/05 03:02:24;;;;;;;25.73;11.13;;;10.30;99.90;;;;;;5034845;28;20541;-78
2024/02/05 03:04:54;;;;;;;21.50;11.10;;;10.30;99.90;;;;;;5034684;28;20922;-77
2024/02/05 03:07:23;;;;;;;23.93;12.20;;;10.30;99.90;;;;;;5035406;28;20947;-77
2024/02/05 03:09:51;;;;;;;19.50;10.03;;;10.30;99.90;;;;;;5034300;28;20446;-78
2024/02/05 03:12:19;;;;;;;19.50;9.90;;;10.30;99.90;;;;;;5035587;28;20443;-77
2024/02/05 03:14:49;;;;;;;19.43;10.70;;;10.30;99.90;;;;;;5034436;28;20462;-78
2024/02/05 03:17:17;;;;;;;19.93;11.60;;;10.30;99.90;;;;;;5035511;28;20867;-77
2024/02/05 03:19:46;;;;;;;24.13;11.90;;;10.30;99.90;;;;;;5034687;28;20470;-78
2024/02/05 03:22:14;;;;;;;22.83;10.53;;;10.30;99.90;;;;;;5034814;28;20964;-78
2024/02/05 03:24:42;;;;;;;33.00;12.70;;;10.30;99.90;;;;;;5034265;28;20467;-77
2024/02/05 03:27:11;;;;;;;22.03;10.67;;;10.30;99.90;;;;;;5033927;28;20501;-77
2024/02/05 03:29:39;;;;;;;24.83;11.07;;;10.20;99.90;;;;;;5033835;28;20447;-77
2024/02/05 03:32:09;;;;;;;23.43;11.40;;;10.20;99.90;;;;;;5033824;28;20470;-77
2024/02/05 03:34:37;;;;;;;30.90;12.17;;;10.20;99.90;;;;;;5033806;28;20487;-77
2024/02/05 03:37:05;;;;;;;26.03;11.47;;;10.20;99.90;;;;;;5034248;28;20549;-78
2024/02/05 03:39:34;;;;;;;20.03;10.60;;;10.20;99.90;;;;;;5033885;28;20497;-77
2024/02/05 03:42:02;;;;;;;31.10;13.07;;;10.20;99.90;;;;;;5033815;28;20481;-78
2024/02/05 03:44:30;;;;;;;32.03;12.63;;;10.20;99.90;;;;;;5034364;28;20466;-77
2024/02/05 03:46:58;;;;;;;25.70;12.10;;;10.20;99.90;;;;;;5033761;28;20546;-77
2024/02/05 03:49:29;;;;;;;29.10;11.97;;;10.20;99.90;;;;;;5034420;28;20462;-77
2024/02/05 03:51:57;;;;;;;24.30;11.33;;;10.20;99.90;;;;;;5034857;28;20427;-78
2024/02/05 03:54:25;;;;;;;23.50;11.80;;;10.20;99.90;;;;;;5034356;28;20476;-78
2024/02/05 03:56:53;;;;;;;27.97;11.90;;;10.20;99.90;;;;;;5033743;28;20501;-78
2024/02/05 03:59:22;;;;;;;28.40;10.87;;;10.20;99.90;;;;;;5034367;28;20486;-77
2024/02/05 04:01:50;;;;;;;26.53;11.83;;;10.20;99.90;;;;;;5033637;28;20450;-77
2024/02/05 04:04:18;;;;;;;27.23;11.20;;;10.20;99.90;;;;;;5034561;28;20473;-78
2024/02/05 04:06:48;;;;;;;28.60;12.60;;;10.20;99.90;;;;;;5034253;28;20803;-76
2024/02/05 04:09:17;;;;;;;29.37;11.10;;;10.20;99.90;;;;;;5034529;28;20936;-77
2024/02/05 04:11:45;;;;;;;24.07;10.10;;;10.20;99.90;;;;;;5033280;28;20839;-77
2024/02/05 04:14:14;;;;;;;25.13;10.47;;;10.20;99.90;;;;;;5033000;28;20513;-77
2024/02/05 04:16:42;;;;;;;30.87;10.90;;;10.20;99.90;;;;;;5034177;28;20443;-77
2024/02/05 04:19:10;;;;;;;26.33;10.40;;;10.20;99.90;;;;;;5032437;28;20454;-77
2024/02/05 04:21:39;;;;;;;27.83;9.93;;;10.20;99.90;;;;;;5032558;28;20470;-76
2024/02/05 04:24:09;;;;;;;21.90;10.13;;;10.30;99.90;;;;;;5033796;28;20463;-76
2024/02/05 04:26:37;;;;;;;30.10;10.37;;;10.30;99.90;;;;;;5032769;28;20446;-76
2024/02/05 04:29:14;;;;;;;22.50;9.57;;;10.30;99.90;;;;;;5034102;28;20439;-76
2024/02/05 04:31:42;;;;;;;20.13;9.47;;;10.30;99.90;;;;;;5032183;28;20481;-76
2024/02/05 04:34:10;;;;;;;26.80;9.83;;;10.30;99.90;;;;;;5032249;28;20548;-76
2024/02/05 04:36:39;;;;;;;22.07;9.70;;;10.30;99.90;;;;;;5032155;28;20451;-76
2024/02/05 04:39:10;;;;;;;23.00;10.00;;;10.30;99.90;;;;;;5033225;28;20462;-77
2024/02/05 04:41:40;;;;;;;26.30;9.57;;;10.30;99.90;;;;;;5032763;28;20500;-76
2024/02/05 04:44:08;;;;;;;24.43;10.43;;;10.30;99.90;;;;;;5032062;28;20493;-76
2024/02/05 04:46:36;;;;;;;24.20;9.40;;;10.30;99.90;;;;;;5031918;28;20454;-76
2024/02/05 04:49:04;;;;;;;24.00;11.10;;;10.30;99.90;;;;;;5032313;28;20443;-76
2024/02/05 04:51:33;;;;;;;23.93;8.87;;;10.40;99.90;;;;;;5031881;28;20538;-76
2024/02/05 04:54:01;;;;;;;28.17;11.17;;;10.30;99.90;;;;;;5031731;28;20540;-76
2024/02/05 04:56:30;;;;;;;25.97;10.57;;;10.40;99.90;;;;;;5032020;28;20497;-77
2024/02/05 04:58:59;;;;;;;24.07;9.37;;;10.40;99.90;;;;;;5032069;28;20454;-76
2024/02/05 05:01:27;;;;;;;24.40;9.97;;;10.40;99.90;;;;;;5032090;28;20443;-76
2024/02/05 05:03:55;;;;;;;26.40;9.87;;;10.40;99.90;;;;;;5032103;28;20816;-76
2024/02/05 05:06:24;;;;;;;20.57;9.87;;;10.40;99.90;;;;;;5033436;28;20870;-76
2024/02/05 05:08:52;;;;;;;24.13;8.47;;;10.40;99.90;;;;;;5033314;28;20526;-77
2024/02/05 05:11:22;;;;;;;22.83;8.20;;;10.40;99.90;;;;;;5031843;28;20937;-77
2024/02/05 05:13:52;;;;;;;22.57;9.40;;;10.40;99.90;;;;;;5032116;28;20502;-76
2024/02/05 05:16:20;;;;;;;25.23;9.80;;;10.40;99.90;;;;;;5031917;28;20458;-77
2024/02/05 05:18:48;;;;;;;20.93;8.30;;;10.40;99.90;;;;;;5032118;28;21051;-77
2024/02/05 05:21:17;;;;;;;19.20;8.53;;;10.50;99.90;;;;;;5032059;28;20451;-77
2024/02/05 05:23:45;;;;;;;24.03;9.93;;;10.40;99.90;;;;;;5031934;28;20521;-76
2024/02/05 05:26:13;;;;;;;24.77;9.73;;;10.50;99.90;;;;;;5031976;28;20859;-76
2024/02/05 05:28:41;;;;;;;19.07;8.53;;;10.50;99.90;;;;;;5031912;28;20478;-76
2024/02/05 05:31:16;;;;;;;25.63;9.70;;;10.50;99.90;;;;;;5033639;28;20453;-77
2024/02/05 05:33:44;;;;;;;21.70;9.13;;;10.50;99.90;;;;;;5035926;28;20480;-77
2024/02/05 05:36:13;;;;;;;23.33;9.33;;;10.50;99.90;;;;;;5037911;28;20473;-77
2024/02/05 05:38:41;;;;;;;22.77;8.90;;;10.50;99.90;;;;;;5036322;28;21046;-77
2024/02/05 05:41:09;;;;;;;18.93;8.60;;;10.50;99.90;;;;;;5035815;28;20483;-76
2024/02/05 05:43:38;;;;;;;22.07;10.30;;;10.50;99.90;;;;;;5035080;28;20451;-77
2024/02/05 05:46:06;;;;;;;20.63;9.30;;;10.50;99.90;;;;;;5035262;28;20781;-77
2024/02/05 05:48:36;;;;;;;20.97;10.47;;;10.50;99.90;;;;;;5036612;28;20446;-77
2024/02/05 05:51:04;;;;;;;21.83;9.17;;;10.50;99.90;;;;;;5036219;28;20438;-76
2024/02/05 05:53:32;;;;;;;19.97;9.67;;;10.50;99.90;;;;;;5035028;28;20505;-77
2024/02/05 05:56:01;;;;;;;19.83;9.63;;;10.50;99.90;;;;;;5035170;28;20549;-77
2024/02/05 05:58:29;;;;;;;18.47;8.90;;;10.50;99.90;;;;;;5034972;28;20498;-77
2024/02/05 06:00:57;;;;;;;20.57;9.50;;;10.50;99.90;;;;;;5036304;28;20470;-76
2024/02/05 06:03:26;;;;;;;27.70;9.73;;;10.60;99.90;;;;;;5034940;28;20450;-77
2024/02/05 06:05:55;;;;;;;18.80;9.13;;;10.50;99.90;;;;;;5034971;28;20554;-76
2024/02/05 06:08:23;;;;;;;26.23;10.30;;;10.50;99.90;;;;;;5034746;28;20446;-77
2024/02/05 06:10:52;;;;;;;18.70;10.10;;;10.60;99.90;;;;;;5034928;28;20459;-76
2024/02/05 06:13:20;;;;;;;22.77;10.30;;;10.50;99.90;;;;;;5034561;28;20554;-77
2024/02/05 06:15:49;;;;;;;21.90;9.80;;;10.50;99.90;;;;;;5034720;28;20512;-77
2024/02/05 06:18:17;;;;;;;25.50;9.40;;;10.50;99.90;;;;;;5034639;28;20451;-76
2024/02/05 06:20:45;;;;;;;20.43;9.50;;;10.50;99.90;;;;;;5034353;28;20451;-76
2024/02/05 06:23:15;;;;;;;20.80;9.70;;;10.50;99.90;;;;;;5036166;28;20517;-77
2024/02/05 06:25:43;;;;;;;24.53;10.10;;;10.50;99.90;;;;;;5034429;28;20471;-77
2024/02/05 06:28:13;;;;;;;23.53;11.20;;;10.50;99.90;;;;;;5036022;28;20783;-78
2024/02/05 06:30:45;;;;;;;23.00;11.90;;;10.50;99.90;;;;;;5034409;28;20478;-77
2024/02/05 06:33:14;;;;;;;25.63;10.30;;;10.50;99.90;;;;;;5035645;28;20431;-76
2024/02/05 06:35:42;;;;;;;24.00;10.87;;;10.50;99.90;;;;;;5033840;28;20528;-77
2024/02/05 06:38:10;;;;;;;19.27;11.10;;;10.50;99.90;;;;;;5035594;28;20443;-76
2024/02/05 06:40:40;;;;;;;19.17;10.00;;;10.50;99.90;;;;;;5034171;28;20487;-77
2024/02/05 06:43:08;;;;;;;18.97;9.80;;;10.50;99.90;;;;;;5033424;28;20520;-77
2024/02/05 06:45:37;;;;;;;21.20;10.30;;;10.50;99.90;;;;;;5034789;28;20467;-77
2024/02/05 06:48:06;;;;;;;22.63;9.97;;;10.50;99.90;;;;;;5035241;28;20573;-78
2024/02/05 06:50:35;;;;;;;20.00;9.20;;;10.50;99.90;;;;;;5034863;28;20482;-77
2024/02/05 06:53:03;;;;;;;19.47;9.90;;;10.50;99.90;;;;;;5034656;28;20482;-78
2024/02/05 06:55:32;;;;;;;21.37;9.53;;;10.50;99.90;;;;;;5034918;28;20474;-78
2024/02/05 06:58:02;;;;;;;20.97;9.40;;;10.50;99.90;;;;;;5034841;28;20485;-77
2024/02/05 07:00:31;;;;;;;25.00;9.80;;;10.50;99.90;;;;;;5034757;28;20550;-78
2024/02/05 07:02:59;;;;;;;25.03;10.33;;;10.50;99.90;;;;;;5035059;28;20481;-77
2024/02/05 07:05:28;;;;;;;19.67;9.00;;;10.50;99.90;;;;;;5034698;28;20467;-78
2024/02/05 07:07:56;;;;;;;25.17;9.90;;;10.50;99.90;;;;;;5034318;28;20944;-78
2024/02/05 07:10:24;;;;;;;18.77;9.53;;;10.50;99.90;;;;;;5036394;28;20446;-78
2024/02/05 07:12:53;;;;;;;24.13;10.43;;;10.50;99.90;;;;;;5034315;28;20467;-77
2024/02/05 07:15:22;;;;;;;17.47;9.30;;;10.50;99.90;;;;;;5033887;28;20479;-78
2024/02/05 07:17:51;;;;;;;19.20;8.70;;;10.50;99.90;;;;;;5034330;28;20596;-76
2024/02/05 07:20:20;;;;;;;19.90;9.83;;;10.50;99.90;;;;;;5034117;28;20948;-77
2024/02/05 07:22:48;;;;;;;23.10;10.07;;;10.50;99.90;;;;;;5033768;28;20443;-77
2024/02/05 07:25:17;;;;;;;22.90;8.90;;;10.50;99.90;;;;;;5034093;28;20566;-78
2024/02/05 07:27:45;;;;;;;17.90;8.77;;;10.50;99.90;;;;;;5034036;28;20447;-77
2024/02/05 07:30:14;;;;;;;21.53;9.77;;;10.50;99.90;;;;;;5034489;28;20801;-78
2024/02/05 07:32:44;;;;;;;26.70;9.53;;;10.50;99.90;;;;;;5033917;28;20513;-78
2024/02/05 07:35:12;;;;;;;18.47;9.10;;;10.40;99.90;;;;;;5034065;28;20525;-79
2024/02/05 07:37:40;;;;;;;19.60;8.83;;;10.50;99.90;;;;;;5035574;28;20514;-77
2024/02/05 07:40:10;;;;;;;22.10;9.33;;;10.50;99.90;;;;;;5033824;28;20804;-78
2024/02/05 07:42:38;;;;;;;16.93;8.50;;;10.50;99.90;;;;;;5033886;28;20500;-78
2024/02/05 07:45:07;;;;;;;18.40;8.40;;;10.50;99.90;;;;;;5033747;28;20558;-77
2024/02/05 07:47:35;;;;;;;17.90;8.30;;;10.50;99.90;;;;;;5034636;28;20467;-77
2024/02/05 07:50:09;;;;;;;16.50;8.40;;;10.50;99.90;;;;;;5033564;28;20958;-77
2024/02/05 07:52:37;;;;;;;20.00;8.50;;;10.50;99.90;;;;;;5034942;28;20423;-77
2024/02/05 07:55:05;;;;;;;20.13;9.10;;;10.50;99.90;;;;;;5033027;28;20570;-77
2024/02/05 07:57:36;;;;;;;16.37;8.80;;;10.40;99.90;;;;;;5033101;28;20540;-77
2024/02/05 08:00:05;;;;;;;22.00;9.17;;;10.50;99.90;;;;;;5032973;28;20447;-77
2024/02/05 08:02:38;;;;;;;23.57;9.40;;;10.50;99.90;;;;;;5034714;28;20426;-77
2024/02/05 08:05:09;;;;;;;20.27;9.47;;;10.50;99.90;;;;;;5033083;28;20570;-77
2024/02/05 08:07:37;;;;;;;17.80;9.00;;;10.40;99.90;;;;;;5034400;28;20415;-77
2024/02/05 08:10:07;;;;;;;20.37;9.33;;;10.40;99.90;;;;;;5032984;28;20505;-77
2024/02/05 08:12:35;;;;;;;18.33;10.13;;;10.50;99.90;;;;;;5033022;28;20502;-78
2024/02/05 08:15:04;;;;;;;22.27;8.80;;;10.50;99.90;;;;;;5032845;28;20499;-77
2024/02/05 08:17:33;;;;;;;21.10;10.27;;;10.40;99.90;;;;;;5032910;28;20497;-78
2024/02/05 08:20:02;;;;;;;18.43;9.13;;;10.50;99.90;;;;;;5032986;28;20541;-77
2024/02/05 08:22:33;;;;;;;21.90;9.30;;;10.40;99.90;;;;;;5032504;28;20450;-76
2024/02/05 08:25:02;;;;;;;17.60;9.10;;;10.40;99.90;;;;;;5033908;28;20859;-78
2024/02/05 08:27:30;;;;;;;22.90;9.40;;;10.40;99.90;;;;;;5033956;28;20474;-77
2024/02/05 08:29:59;;;;;;;19.23;9.27;;;10.40;99.90;;;;;;5032713;28;20834;-77
2024/02/05 08:32:27;;;;;;;22.20;8.77;;;10.40;99.90;;;;;;5033220;28;20439;-78
2024/02/05 08:34:56;;;;;;;24.33;9.80;;;10.40;99.90;;;;;;5032936;28;20496;-78
2024/02/05 08:37:24;;;;;;;17.60;9.20;;;10.40;99.90;;;;;;5032793;28;20471;-77
2024/02/05 08:39:54;;;;;;;17.67;8.17;;;10.40;99.90;;;;;;5032649;28;20542;-77
2024/02/05 08:42:24;;;;;;;22.23;9.77;;;10.40;99.90;;;;;;5032911;28;20458;-77
2024/02/05 08:45:00;;;;;;;22.53;9.27;;;10.40;99.90;;;;;;5032801;28;20521;-77
2024/02/05 08:47:32;;;;;;;20.57;8.43;;;10.40;99.90;;;;;;5032305;28;20925;-77
2024/02/05 08:50:00;;;;;;;22.50;8.93;;;10.40;99.90;;;;;;5032997;28;20449;-78
2024/02/05 08:52:29;;;;;;;21.10;9.43;;;10.40;99.90;;;;;;5033167;28;20501;-77
2024/02/05 08:54:59;;;;;;;17.83;9.20;;;10.40;99.90;;;;;;5034133;28;20447;-77
2024/02/05 08:57:28;;;;;;;23.53;9.60;;;10.40;99.90;;;;;;5032802;28;21034;-78
2024/02/05 08:59:56;;;;;;;19.37;8.30;;;10.40;99.90;;;;;;5033322;28;20458;-77
2024/02/05 09:02:26;;;;;;;17.70;9.23;;;10.30;99.90;;;;;;5032769;28;20455;-77
2024/02/05 09:04:55;;;;;;;15.30;8.53;;;10.40;99.90;;;;;;5032761;28;20569;-77
2024/02/05 09:07:23;;;;;;;16.07;7.67;;;10.40;99.90;;;;;;5037669;28;20537;-78
2024/02/05 09:09:51;;;;;;;22.13;8.77;;;10.40;99.90;;;;;;5036573;28;20443;-77
2024/02/05 09:12:27;;;;;;;16.37;8.70;;;10.30;99.90;;;;;;5037526;28;20451;-77
2024/02/05 09:14:55;;;;;;;20.90;9.10;;;10.40;99.90;;;;;;5036213;28;20474;-77
2024/02/05 09:17:24;;;;;;;18.30;8.70;;;10.40;99.90;;;;;;5035843;28;20999;-76
2024/02/05 09:19:52;;;;;;;22.00;9.27;;;10.40;99.90;;;;;;5036180;28;20508;-77
2024/02/05 09:22:21;;;;;;;17.50;7.77;;;10.30;99.90;;;;;;5035991;28;20454;-77
2024/02/05 09:24:50;;;;;;;18.87;8.77;;;10.30;99.90;;;;;;5036105;28;20473;-77
2024/02/05 09:27:19;;;;;;;27.30;9.00;;;10.40;99.90;;;;;;5035938;28;20443;-77
2024/02/05 09:29:48;;;;;;;15.73;8.00;;;10.40;99.90;;;;;;5035896;28;20508;-77
2024/02/05 09:32:17;;;;;;;20.57;8.60;;;10.30;99.90;;;;;;5036088;28;20461;-77
2024/02/05 09:34:45;;;;;;;20.30;9.87;;;10.30;99.90;;;;;;5037137;28;20486;-77
2024/02/05 09:37:13;;;;;;;17.77;7.83;;;10.30;99.90;;;;;;5035941;28;20466;-78
2024/02/05 09:39:42;;;;;;;18.13;9.27;;;10.30;99.90;;;;;;5037055;28;20446;-77
2024/02/05 09:42:12;;;;;;;21.73;8.80;;;10.30;99.90;;;;;;5036863;28;20449;-78
2024/02/05 09:44:41;;;;;;;22.07;9.00;;;10.40;99.90;;;;;;5035352;28;20553;-77
2024/02/05 09:47:12;;;;;;;17.50;8.23;;;10.30;99.90;;;;;;5035278;28;20512;-78
2024/02/05 09:49:41;;;;;;;20.17;8.70;;;10.30;99.90;;;;;;5035447;28;20439;-77
2024/02/05 09:52:09;;;;;;;18.20;8.37;;;10.30;99.90;;;;;;5036573;28;20472;-76
2024/02/05 09:54:41;;;;;;;20.73;9.30;;;10.30;99.90;;;;;;5035236;28;20462;-77
2024/02/05 09:57:10;;;;;;;22.63;8.97;;;10.30;99.90;;;;;;5035242;28;20513;-77
2024/02/05 09:59:40;;;;;;;18.93;8.67;;;10.30;99.90;;;;;;5034969;28;20800;-77
2024/02/05 10:02:11;;;;;;;18.37;9.60;;;10.30;99.90;;;;;;5035136;28;20513;-77
2024/02/05 10:04:44;;;;;;;20.13;9.47;;;10.40;99.90;;;;;;5035447;28;20466;-76
2024/02/05 10:07:14;;;;;;;22.67;9.70;;;10.30;99.90;;;;;;5036583;28;20438;-76
2024/02/05 10:09:44;;;;;;;20.00;8.50;;;10.30;99.90;;;;;;5036682;28;20777;-77
2024/02/05 10:12:13;;;;;;;14.10;9.10;;;10.30;99.90;;;;;;5035036;28;20524;-77
2024/02/05 10:14:42;;;;;;;19.97;9.00;;;10.30;99.90;;;;;;5036013;28;20481;-77
2024/02/05 10:17:12;;;;;;;23.07;8.87;;;10.30;99.90;;;;;;5033554;28;20886;-77
2024/02/05 10:19:42;;;;;;;21.10;9.77;;;10.30;99.90;;;;;;5034702;28;20917;-77
2024/02/05 10:22:11;;;;;;;19.07;8.93;;;10.30;99.90;;;;;;5034589;28;21039;-78
2024/02/05 10:24:41;;;;;;;14.80;8.10;;;10.30;99.90;;;;;;5035884;28;20462;-78
2024/02/05 10:27:15;;;;;;;20.90;8.17;;;10.30;99.90;;;;;;5034668;28;20960;-77
2024/02/05 10:29:43;;;;;;;17.90;9.30;;;10.30;99.90;;;;;;5034380;28;20450;-77
2024/02/05 10:32:13;;;;;;;14.63;8.20;;;10.30;99.90;;;;;;5035843;28;20929;-77
2024/02/05 10:34:42;;;;;;;20.10;9.00;;;10.30;99.90;;;;;;5035794;28;20972;-76
2024/02/05 10:37:11;;;;;;;21.73;9.43;;;10.30;99.90;;;;;;5035431;28;20569;-78
2024/02/05 10:39:40;;;;;;;23.07;8.97;;;10.30;99.90;;;;;;5035372;28;20439;-77
2024/02/05 10:42:09;;;;;;;19.47;8.90;;;10.30;99.90;;;;;;5034349;28;20454;-76
2024/02/05 10:44:37;;;;;;;21.20;9.83;;;10.30;99.90;;;;;;5034302;28;20549;-76
2024/02/05 10:47:10;;;;;;;13.77;6.63;;;10.30;99.90;;;;;;5034161;28;20453;-77
2024/02/05 10:49:40;;;;;;;16.40;8.60;;;10.30;99.90;;;;;;5034182;28;20458;-77
2024/02/05 10:52:09;;;;;;;22.23;8.90;;;10.30;99.90;;;;;;5035790;28;20435;-77
2024/02/05 10:54:43;;;;;;;20.47;8.70;;;10.30;99.90;;;;;;5034059;28;20573;-77
2024/02/05 10:57:14;;;;;;;16.03;9.10;;;10.30;99.90;;;;;;5034000;28;20502;-76
2024/02/05 10:59:42;;;;;;;17.40;8.50;;;10.30;99.90;;;;;;5033820;28;20447;-76
2024/02/05 11:02:18;;;;;;;18.80;8.67;;;10.30;99.90;;;;;;5035214;28;20443;-77
2024/02/05 11:04:48;;;;;;;18.80;8.67;;;10.30;99.90;;;;;;5033900;28;20478;-77
2024/02/05 11:07:20;;;;;;;17.83;8.70;;;10.30;99.90;;;;;;5033869;28;20451;-77
2024/02/05 11:09:50;;;;;;;17.23;8.37;;;10.30;99.90;;;;;;5034792;28;20931;-76
2024/02/05 11:12:22;;;;;;;18.40;9.43;;;10.20;99.90;;;;;;5033424;28;20466;-77
2024/02/05 11:14:55;;;;;;;19.67;8.20;;;10.20;99.90;;;;;;5033433;28;20506;-77
2024/02/05 11:17:24;;;;;;;18.13;8.87;;;10.20;99.90;;;;;;5033268;28;20467;-76
2024/02/05 11:19:56;;;;;;;19.83;8.27;;;10.20;99.90;;;;;;5034550;28;20501;-76
2024/02/05 11:22:25;;;;;;;22.20;8.63;;;10.30;99.90;;;;;;5034686;28;20446;-76
2024/02/05 11:24:54;;;;;;;16.90;8.03;;;10.20;99.90;;;;;;5033200;28;20593;-77
2024/02/05 11:27:22;;;;;;;17.70;9.10;;;10.20;99.90;;;;;;5034806;28;20439;-77
2024/02/05 11:29:50;;;;;;;16.60;8.77;;;10.20;99.90;;;;;;5033323;28;20454;-77
2024/02/05 11:32:18;;;;;;;21.43;9.43;;;10.20;99.90;;;;;;5033597;28;20536;-77
2024/02/05 11:34:46;;;;;;;18.20;9.30;;;10.20;99.90;;;;;;5033614;28;20529;-76
2024/02/05 11:37:19;;;;;;;21.00;9.43;;;10.20;99.90;;;;;;5032886;28;20578;-77
2024/02/05 11:39:48;;;;;;;21.10;9.00;;;10.20;99.90;;;;;;5033028;28;20474;-76
2024/02/05 11:42:19;;;;;;;24.03;9.70;;;10.20;99.90;;;;;;5034534;28;20443;-78
2024/02/05 11:44:48;;;;;;;17.90;8.13;;;10.20;99.90;;;;;;5034500;28;20477;-77
2024/02/05 11:47:16;;;;;;;17.60;9.43;;;10.20;99.90;;;;;;5033297;28;20509;-77
2024/02/05 11:49:45;;;;;;;17.90;8.73;;;10.20;99.90;;;;;;5034823;28;20505;-78
2024/02/05 11:52:16;;;;;;;18.20;8.10;;;10.20;99.90;;;;;;5033464;28;20455;-78
2024/02/05 11:54:46;;;;;;;16.20;8.50;;;10.20;99.90;;;;;;5034973;28;20508;-78
2024/02/05 11:57:14;;;;;;;17.40;9.20;;;10.20;99.90;;;;;;5033113;28;20470;-77
2024/02/05 11:59:42;;;;;;;14.30;8.80;;;10.20;99.90;;;;;;5032996;28;20944;-77
2024/02/05 12:02:10;;;;;;;11.50;6.73;;;10.20;99.90;;;;;;5032956;28;20454;-77
2024/02/05 12:04:40;;;;;;;17.53;9.27;;;10.20;99.90;;;;;;5032931;28;20562;-77
2024/02/05 12:07:09;;;;;;;19.10;8.73;;;10.20;99.90;;;;;;5032833;28;20444;-76
2024/02/05 12:09:38;;;;;;;16.27;7.40;;;10.20;99.90;;;;;;5032854;28;20455;-78
2024/02/05 12:12:08;;;;;;;15.83;9.20;;;10.20;99.90;;;;;;5032800;28;20979;-77
2024/02/05 12:14:37;;;;;;;15.90;8.90;;;10.20;99.90;;;;;;5032893;28;21011;-77
2024/02/05 12:17:13;;;;;;;18.63;8.90;;;10.20;99.90;;;;;;5032579;28;20542;-77
2024/02/05 12:19:41;;;;;;;16.83;8.07;;;10.20;99.90;;;;;;5032766;28;20845;-77
2024/02/05 12:22:10;;;;;;;12.83;7.83;;;10.20;99.90;;;;;;5032736;28;20451;-77
2024/02/05 12:24:39;;;;;;;18.20;9.00;;;10.20;99.90;;;;;;5033756;28;20463;-78
2024/02/05 12:27:08;;;;;;;17.57;8.97;;;10.20;99.90;;;;;;5032621;28;20463;-78
2024/02/05 12:29:37;;;;;;;17.40;7.70;;;10.20;99.90;;;;;;5032544;28;20464;-77
2024/02/05 12:32:07;;;;;;;17.20;8.07;;;10.20;99.90;;;;;;5032419;28;20455;-79
2024/02/05 12:34:36;;;;;;;17.60;7.67;;;10.20;99.90;;;;;;5033826;28;20462;-77
2024/02/05 12:37:06;;;;;;;13.90;8.30;;;10.20;99.90;;;;;;5032340;28;20447;-77
2024/02/05 12:39:36;;;;;;;16.93;8.30;;;10.20;99.90;;;;;;5032435;28;20979;-77
2024/02/05 12:42:05;;;;;;;13.67;7.47;;;10.30;99.90;;;;;;5036263;28;20865;-78
2024/02/05 12:44:35;;;;;;;18.53;7.80;;;10.30;99.90;;;;;;5037196;28;20478;-77